createdAt,value
2023-02-16T00:00:28.248Z,-11.80
2023-02-16T00:02:56.373Z,-12.06
2023-02-16T00:05:27.212Z,-11.91
2023-02-16T00:08:02.217Z,-12.00
2023-02-16T00:10:36.500Z,-11.94
2023-02-16T00:13:45.524Z,-12.17
2023-02-16T00:16:22.090Z,-12.06
2023-02-16T00:18:50.829Z,-12.14
2023-02-16T00:21:19.305Z,-12.12
2023-02-16T00:23:48.653Z,-12.31
2023-02-16T00:26:20.360Z,-12.31
2023-02-16T00:28:51.677Z,-12.35
2023-02-16T00:31:27.633Z,-12.20
2023-02-16T00:33:56.092Z,-12.19
2023-02-16T00:36:23.727Z,-12.26
2023-02-16T00:38:51.803Z,-12.29
2023-02-16T00:41:41.199Z,-12.25
2023-02-16T00:44:18.140Z,-12.21
2023-02-16T00:46:46.805Z,-12.35
2023-02-16T00:49:23.576Z,-12.33
2023-02-16T00:51:51.297Z,-12.32
2023-02-16T00:54:19.546Z,-12.41
2023-02-16T00:56:47.310Z,-12.46
2023-02-16T00:59:20.749Z,-12.47
2023-02-16T01:01:49.243Z,-12.45
2023-02-16T01:04:22.154Z,-12.54
2023-02-16T01:07:08.622Z,-12.69
2023-02-16T01:09:55.466Z,-12.67
2023-02-16T01:12:23.274Z,-12.72
2023-02-16T01:14:55.792Z,-12.64
2023-02-16T01:17:24.782Z,-12.57
2023-02-16T01:19:54.933Z,-12.52
2023-02-16T01:22:22.556Z,-12.68
2023-02-16T01:24:50.269Z,-12.59
2023-02-16T01:27:18.905Z,-12.89
2023-02-16T01:29:46.626Z,-12.70
2023-02-16T01:32:16.874Z,-12.83
2023-02-16T01:34:44.630Z,-12.74
2023-02-16T01:37:16.760Z,-12.71
2023-02-16T01:39:44.904Z,-12.65
2023-02-16T01:42:32.626Z,-12.91
2023-02-16T01:45:05.290Z,-12.86
2023-02-16T01:47:42.686Z,-13.15
2023-02-16T01:50:16.078Z,-12.94
2023-02-16T01:52:48.646Z,-13.06
2023-02-16T01:55:33.742Z,-13.02
2023-02-16T01:58:16.695Z,-13.14
2023-02-16T02:00:53.229Z,-13.10
2023-02-16T02:03:48.720Z,-13.19
2023-02-16T02:06:20.560Z,-13.16
2023-02-16T02:09:06.681Z,-13.09
2023-02-16T02:11:42.302Z,-13.26
2023-02-16T02:14:16.290Z,-13.31
2023-02-16T02:16:59.091Z,-13.56
2023-02-16T02:19:31.475Z,-13.43
2023-02-16T02:22:28.919Z,-13.29
2023-02-16T02:25:22.131Z,-13.33
2023-02-16T02:28:22.082Z,-13.36
2023-02-16T02:30:59.000Z,-13.33
2023-02-16T02:34:05.991Z,-13.23
2023-02-16T02:36:46.176Z,-13.26
2023-02-16T02:39:39.719Z,-13.02
2023-02-16T02:42:32.232Z,-13.00
2023-02-16T02:45:12.909Z,-12.93
2023-02-16T02:47:47.553Z,-12.97
2023-02-16T02:50:37.327Z,-13.12
2023-02-16T02:53:10.580Z,-13.33
2023-02-16T02:56:02.301Z,-13.17
2023-02-16T02:58:53.195Z,-13.52
2023-02-16T03:01:22.971Z,-13.66
2023-02-16T03:03:55.689Z,-13.57
2023-02-16T03:06:36.587Z,-13.45
2023-02-16T03:09:12.492Z,-13.64
2023-02-16T03:11:58.646Z,-13.86
2023-02-16T03:14:33.565Z,-13.70
2023-02-16T03:17:24.393Z,-13.78
2023-02-16T03:20:11.331Z,-14.13
2023-02-16T03:22:59.567Z,-14.08
2023-02-16T03:25:49.366Z,-13.77
2023-02-16T03:28:39.259Z,-13.86
2023-02-16T03:31:10.009Z,-14.01
2023-02-16T03:33:38.465Z,-13.99
2023-02-16T03:36:07.704Z,-13.86
2023-02-16T03:38:36.177Z,-14.15
2023-02-16T03:41:04.927Z,-14.04
2023-02-16T03:43:32.904Z,-14.11
2023-02-16T03:46:00.599Z,-14.11
2023-02-16T03:48:28.320Z,-14.11
2023-02-16T03:50:55.927Z,-13.94
2023-02-16T03:53:23.655Z,-13.74
2023-02-16T03:55:51.165Z,-13.73
2023-02-16T03:58:22.494Z,-13.61
2023-02-16T04:00:51.315Z,-13.80
2023-02-16T04:03:19.913Z,-13.57
2023-02-16T04:05:47.520Z,-13.65
2023-02-16T04:08:15.227Z,-13.52
2023-02-16T04:10:42.820Z,-13.26
2023-02-16T04:13:10.570Z,-13.14
2023-02-16T04:15:38.113Z,-13.13
2023-02-16T04:18:05.797Z,-13.09
2023-02-16T04:20:34.764Z,-12.95
2023-02-16T04:23:03.484Z,-12.87
2023-02-16T04:25:31.127Z,-12.89
2023-02-16T04:27:59.056Z,-12.81
2023-02-16T04:30:30.089Z,-12.72
2023-02-16T04:32:59.127Z,-12.65
2023-02-16T04:35:26.999Z,-12.59
2023-02-16T04:37:54.514Z,-12.50
2023-02-16T04:40:22.446Z,-12.36
2023-02-16T04:42:50.038Z,-12.24
2023-02-16T04:45:17.663Z,-12.21
2023-02-16T04:47:45.285Z,-12.08
2023-02-16T04:50:13.043Z,-12.01
2023-02-16T04:52:41.706Z,-11.92
2023-02-16T04:55:11.217Z,-11.72
2023-02-16T04:57:40.534Z,-11.62
2023-02-16T05:00:09.577Z,-11.52
2023-02-16T05:02:37.218Z,-11.44
2023-02-16T05:05:04.924Z,-11.32
2023-02-16T05:07:32.584Z,-11.27
2023-02-16T05:10:00.175Z,-11.18
2023-02-16T05:12:45.971Z,-11.00
2023-02-16T05:15:13.529Z,-10.81
2023-02-16T05:17:41.049Z,-10.69
2023-02-16T05:20:09.017Z,-10.56
2023-02-16T05:22:39.352Z,-10.37
2023-02-16T05:25:07.876Z,-10.20
2023-02-16T05:27:35.828Z,-10.02
2023-02-16T05:30:03.840Z,-9.74
2023-02-16T05:32:32.284Z,-9.57
2023-02-16T05:34:59.815Z,-9.32
2023-02-16T05:37:27.453Z,-9.13
2023-02-16T05:39:55.155Z,-9.01
2023-02-16T05:42:22.743Z,-8.77
2023-02-16T05:44:50.384Z,-8.50
2023-02-16T05:47:17.982Z,-8.24
2023-02-16T05:49:45.522Z,-7.98
2023-02-16T05:52:13.065Z,-7.74
2023-02-16T05:54:40.674Z,-7.46
2023-02-16T05:57:10.056Z,-7.12
2023-02-16T05:59:37.896Z,-7.00
2023-02-16T06:02:58.187Z,-6.50
2023-02-16T06:05:26.801Z,-5.83
2023-02-16T06:07:54.275Z,-5.44
2023-02-16T06:10:22.008Z,-5.15
2023-02-16T06:12:49.544Z,-4.75
2023-02-16T06:15:18.289Z,-4.26
2023-02-16T06:17:45.827Z,-4.29
2023-02-16T06:20:13.648Z,-3.92
2023-02-16T06:22:41.243Z,-3.63
2023-02-16T06:25:08.927Z,-3.05
2023-02-16T06:27:36.656Z,-2.26
2023-02-16T06:30:05.018Z,-2.12
2023-02-16T06:32:33.860Z,-1.71
2023-02-16T06:35:01.439Z,-1.35
2023-02-16T06:37:31.344Z,-0.88
2023-02-16T06:39:58.959Z,-0.67
2023-02-16T06:42:26.671Z,-0.83
2023-02-16T06:44:54.245Z,-0.41
2023-02-16T06:47:21.930Z,-0.11
2023-02-16T06:49:49.535Z,0.19
2023-02-16T06:52:17.211Z,0.42
2023-02-16T06:54:44.803Z,0.79
2023-02-16T06:57:12.437Z,0.84
2023-02-16T06:59:40.438Z,1.00
2023-02-16T07:02:07.967Z,0.98
2023-02-16T07:04:35.623Z,1.43
2023-02-16T07:07:04.426Z,1.91
2023-02-16T07:09:32.139Z,2.26
2023-02-16T07:11:59.912Z,2.58
2023-02-16T07:14:27.516Z,2.45
2023-02-16T07:16:55.127Z,2.70
2023-02-16T07:19:22.675Z,2.96
2023-02-16T07:21:50.495Z,3.18
2023-02-16T07:24:18.562Z,3.31
2023-02-16T07:26:46.089Z,3.45
2023-02-16T07:29:13.773Z,3.42
2023-02-16T07:31:41.745Z,3.59
2023-02-16T07:34:09.393Z,3.45
2023-02-16T07:36:37.087Z,3.25
2023-02-16T07:39:04.870Z,3.21
2023-02-16T07:41:32.447Z,3.03
2023-02-16T07:44:08.267Z,2.96
2023-02-16T07:46:36.688Z,2.77
2023-02-16T07:49:04.525Z,2.65
2023-02-16T07:51:32.718Z,2.44
2023-02-16T07:54:01.038Z,2.40
2023-02-16T07:56:31.285Z,2.45
2023-02-16T07:59:00.475Z,2.33
2023-02-16T08:01:30.336Z,2.08
2023-02-16T08:03:58.294Z,1.99
2023-02-16T08:06:25.875Z,1.80
2023-02-16T08:08:53.569Z,1.71
2023-02-16T08:11:24.128Z,1.40
2023-02-16T08:13:53.472Z,1.06
2023-02-16T08:16:23.604Z,0.58
2023-02-16T08:18:52.185Z,0.20
2023-02-16T08:21:25.259Z,0.10
2023-02-16T08:23:59.979Z,-0.21
2023-02-16T08:26:33.260Z,-0.52
2023-02-16T08:29:02.341Z,-0.75
2023-02-16T08:31:32.167Z,-1.40
2023-02-16T08:34:02.068Z,-1.65
2023-02-16T08:36:35.428Z,-1.81
2023-02-16T08:39:06.488Z,-2.06
2023-02-16T08:41:36.695Z,-2.37
2023-02-16T08:44:06.630Z,-2.49
2023-02-16T08:46:36.048Z,-2.51
2023-02-16T08:49:04.461Z,-2.63
2023-02-16T08:51:37.698Z,-2.88
2023-02-16T08:54:08.921Z,-3.42
2023-02-16T08:56:37.034Z,-3.64
2023-02-16T08:59:04.552Z,-3.97
2023-02-16T09:01:32.709Z,-3.91
2023-02-16T09:04:00.363Z,-4.28
2023-02-16T09:06:27.929Z,-4.27
2023-02-16T09:08:57.676Z,-4.48
2023-02-16T09:11:25.908Z,-4.76
2023-02-16T09:13:53.653Z,-4.89
2023-02-16T09:16:23.931Z,-4.68
2023-02-16T09:18:52.699Z,-4.84
2023-02-16T09:21:23.528Z,-4.85
2023-02-16T09:23:51.858Z,-5.02
2023-02-16T09:26:21.098Z,-5.08
2023-02-16T09:28:49.499Z,-5.13
2023-02-16T09:31:27.572Z,-5.21
2023-02-16T09:33:58.151Z,-5.26
2023-02-16T09:36:26.119Z,-5.25
2023-02-16T09:38:54.809Z,-5.34
2023-02-16T09:41:35.309Z,-5.27
2023-02-16T09:44:22.151Z,-5.17
2023-02-16T09:46:50.793Z,-5.06
2023-02-16T09:49:41.202Z,-5.33
2023-02-16T09:52:08.770Z,-5.23
2023-02-16T09:54:48.027Z,-5.57
2023-02-16T09:57:41.617Z,-5.58
2023-02-16T10:00:38.257Z,-5.70
2023-02-16T10:03:13.709Z,-5.67
2023-02-16T10:06:08.158Z,-5.60
2023-02-16T10:08:50.563Z,-5.55
2023-02-16T10:12:01.487Z,-5.65
2023-02-16T10:14:51.866Z,-5.77
2023-02-16T10:17:38.091Z,-5.55
2023-02-16T10:20:30.494Z,-5.80
2023-02-16T10:23:23.412Z,-5.88
2023-02-16T10:26:01.917Z,-5.88
2023-02-16T10:28:43.766Z,-5.95
2023-02-16T10:31:34.474Z,-5.83
2023-02-16T10:34:24.491Z,-5.93
2023-02-16T10:37:02.726Z,-5.73
2023-02-16T10:39:32.993Z,-5.72
2023-02-16T10:42:16.749Z,-5.76
2023-02-16T10:45:18.475Z,-5.65
2023-02-16T10:47:47.555Z,-5.64
2023-02-16T10:50:33.579Z,-5.60
2023-02-16T10:53:16.231Z,-5.64
2023-02-16T10:55:43.790Z,-5.82
2023-02-16T10:58:35.426Z,-5.89
2023-02-16T11:01:11.898Z,-6.01
2023-02-16T11:03:47.035Z,-5.99
2023-02-16T11:06:17.726Z,-5.90
2023-02-16T11:08:58.270Z,-5.72
2023-02-16T11:11:27.824Z,-5.62
2023-02-16T11:14:01.974Z,-5.87
2023-02-16T11:16:30.144Z,-5.89
2023-02-16T11:19:00.874Z,-5.99
2023-02-16T11:21:47.665Z,-5.91
2023-02-16T11:24:33.674Z,-5.91
2023-02-16T11:27:19.922Z,-5.99
2023-02-16T11:29:47.821Z,-6.23
2023-02-16T11:32:18.510Z,-6.38
2023-02-16T11:34:48.152Z,-6.24
2023-02-16T11:37:24.705Z,-6.14
2023-02-16T11:39:54.609Z,-6.71
2023-02-16T11:42:33.638Z,-6.28
2023-02-16T11:45:03.649Z,-6.47
2023-02-16T11:47:36.997Z,-6.28
2023-02-16T11:50:27.257Z,-6.11
2023-02-16T11:53:15.769Z,-6.08
2023-02-16T11:55:46.482Z,-6.21
2023-02-16T11:58:25.036Z,-6.12
2023-02-16T12:01:16.987Z,-6.10
2023-02-16T12:04:00.298Z,-6.06
2023-02-16T12:06:43.324Z,-5.96
2023-02-16T12:09:30.996Z,-6.17
2023-02-16T12:12:10.933Z,-6.14
2023-02-16T12:14:50.938Z,-6.05
2023-02-16T12:17:28.179Z,-6.37
2023-02-16T12:20:27.448Z,-6.30
2023-02-16T12:23:33.246Z,-6.11
2023-02-16T12:26:07.058Z,-6.06
2023-02-16T12:28:39.391Z,-6.06
2023-02-16T12:31:28.970Z,-6.13
2023-02-16T12:34:14.126Z,-6.13
2023-02-16T12:37:20.670Z,-6.25
2023-02-16T12:40:06.702Z,-6.29
2023-02-16T12:42:40.513Z,-6.39
2023-02-16T12:45:14.789Z,-6.14
2023-02-16T12:47:55.305Z,-6.33
2023-02-16T12:50:28.192Z,-6.25
2023-02-16T12:53:06.490Z,-6.11
2023-02-16T12:55:56.505Z,-6.13
2023-02-16T12:58:25.223Z,-6.14
2023-02-16T13:01:12.450Z,-6.49
2023-02-16T13:03:54.384Z,-6.81
2023-02-16T13:06:43.658Z,-6.82
2023-02-16T13:09:20.319Z,-6.86
2023-02-16T13:11:58.295Z,-6.95
2023-02-16T13:14:35.402Z,-7.10
2023-02-16T13:17:18.376Z,-6.91
2023-02-16T13:19:47.794Z,-7.09
2023-02-16T13:22:18.476Z,-7.11
2023-02-16T13:24:51.984Z,-7.34
2023-02-16T13:27:28.826Z,-7.27
2023-02-16T13:30:37.466Z,-7.31
2023-02-16T13:33:14.977Z,-7.34
2023-02-16T13:36:37.502Z,-7.46
2023-02-16T13:39:18.510Z,-7.49
2023-02-16T13:42:26.403Z,-7.89
2023-02-16T13:45:03.382Z,-7.98
2023-02-16T13:47:38.913Z,-8.12
2023-02-16T13:50:31.747Z,-8.11
2023-02-16T13:53:10.104Z,-8.00
2023-02-16T13:55:40.333Z,-8.05
2023-02-16T13:58:13.886Z,-8.19
2023-02-16T14:00:42.975Z,-8.14
2023-02-16T14:03:22.500Z,-8.11
2023-02-16T14:06:28.643Z,-8.12
2023-02-16T14:09:11.588Z,-8.49
2023-02-16T14:11:53.198Z,-8.48
2023-02-16T14:14:43.925Z,-8.40
2023-02-16T14:17:21.957Z,-8.62
2023-02-16T14:19:58.109Z,-8.83
2023-02-16T14:22:43.808Z,-8.68
2023-02-16T14:25:21.004Z,-8.76
2023-02-16T14:27:59.034Z,-8.68
2023-02-16T14:30:32.429Z,-8.90
2023-02-16T14:33:16.871Z,-8.93
2023-02-16T14:35:46.490Z,-9.30
2023-02-16T14:38:30.986Z,-9.23
2023-02-16T14:41:09.150Z,-9.28
2023-02-16T14:43:46.026Z,-9.66
2023-02-16T14:46:35.161Z,-9.45
2023-02-16T14:49:30.498Z,-9.64
2023-02-16T14:52:30.117Z,-9.54
2023-02-16T14:55:09.999Z,-9.41
2023-02-16T14:57:43.216Z,-9.60
2023-02-16T15:00:29.376Z,-9.63
2023-02-16T15:03:00.126Z,-9.69
2023-02-16T15:05:31.136Z,-9.82
2023-02-16T15:08:16.800Z,-9.78
2023-02-16T15:10:47.548Z,-10.17
2023-02-16T15:13:33.168Z,-10.14
2023-02-16T15:16:03.714Z,-10.22
2023-02-16T15:18:43.066Z,-10.76
2023-02-16T15:21:28.780Z,-10.68
2023-02-16T15:23:59.576Z,-10.61
2023-02-16T15:26:31.139Z,-10.48
2023-02-16T15:29:01.933Z,-10.65
2023-02-16T15:31:37.331Z,-10.61
2023-02-16T15:34:08.369Z,-10.38
2023-02-16T15:36:44.542Z,-10.66
2023-02-16T15:39:38.514Z,-10.70
2023-02-16T15:42:32.130Z,-10.58
2023-02-16T15:44:59.747Z,-10.59
2023-02-16T15:47:27.671Z,-10.74
2023-02-16T15:49:55.541Z,-10.65
2023-02-16T15:52:43.674Z,-10.96
2023-02-16T15:55:13.253Z,-10.86
2023-02-16T15:57:41.614Z,-11.04
2023-02-16T16:00:22.117Z,-10.91
2023-02-16T16:02:58.806Z,-11.24
2023-02-16T16:05:26.288Z,-11.39
2023-02-16T16:07:55.728Z,-11.78
2023-02-16T16:10:32.960Z,-11.59
2023-02-16T16:13:17.984Z,-11.50
2023-02-16T16:16:34.296Z,-11.64
2023-02-16T16:19:17.350Z,-11.62
2023-02-16T16:21:56.937Z,-11.50
2023-02-16T16:24:40.708Z,-11.63
2023-02-16T16:27:15.172Z,-11.50
2023-02-16T16:29:48.105Z,-11.45
2023-02-16T16:32:20.740Z,-11.50
2023-02-16T16:34:49.108Z,-11.50
2023-02-16T16:37:22.649Z,-11.37
2023-02-16T16:40:27.760Z,-11.37
2023-02-16T16:43:09.663Z,-11.22
2023-02-16T16:45:47.157Z,-11.12
2023-02-16T16:48:20.366Z,-11.33
2023-02-16T16:50:49.167Z,-11.35
2023-02-16T16:53:32.164Z,-11.19
2023-02-16T16:56:01.939Z,-11.50
2023-02-16T16:58:29.762Z,-11.14
2023-02-16T17:00:57.634Z,-11.16
2023-02-16T17:03:25.193Z,-11.20
2023-02-16T17:05:52.812Z,-11.11
2023-02-16T17:08:20.366Z,-11.00
2023-02-16T17:10:47.981Z,-10.90
2023-02-16T17:13:19.027Z,-10.99
2023-02-16T17:18:57.409Z,-10.93
2023-02-16T17:21:25.004Z,-11.02
2023-02-16T17:23:53.523Z,-10.92
2023-02-16T17:26:22.963Z,-10.95
2023-02-16T17:28:51.122Z,-10.90
2023-02-16T17:31:18.711Z,-11.02
2023-02-16T17:33:46.257Z,-10.99
2023-02-16T17:36:15.852Z,-10.97
2023-02-16T17:38:47.138Z,-11.07
2023-02-16T17:41:27.509Z,-11.13
2023-02-16T17:43:55.194Z,-11.22
2023-02-16T17:46:23.417Z,-11.51
2023-02-16T17:48:54.197Z,-11.51
2023-02-16T17:51:31.376Z,-11.84
2023-02-16T17:54:02.408Z,-11.73
2023-02-16T17:56:32.715Z,-11.75
2023-02-16T17:59:00.303Z,-11.76
2023-02-16T18:01:28.005Z,-12.08
2023-02-16T18:03:55.759Z,-12.36
2023-02-16T18:06:28.920Z,-12.13
2023-02-16T18:08:57.074Z,-12.04
2023-02-16T18:11:24.738Z,-12.03
2023-02-16T18:13:52.688Z,-12.39
2023-02-16T18:16:25.307Z,-12.56
2023-02-16T18:18:53.689Z,-12.41
2023-02-16T18:21:21.221Z,-12.37
2023-02-16T18:23:48.827Z,-12.27
2023-02-16T18:26:17.027Z,-12.24
2023-02-16T18:28:45.236Z,-12.43
2023-02-16T18:31:13.392Z,-12.17
2023-02-16T18:33:41.117Z,-11.99
2023-02-16T18:36:09.417Z,-12.25
2023-02-16T18:38:37.307Z,-12.43
2023-02-16T18:41:05.139Z,-12.88
2023-02-16T18:43:32.767Z,-12.80
2023-02-16T18:46:04.644Z,-12.59
2023-02-16T18:48:32.502Z,-12.51
2023-02-16T18:51:03.272Z,-12.79
2023-02-16T18:53:30.833Z,-12.70
2023-02-16T18:55:58.559Z,-12.55
2023-02-16T18:58:26.228Z,-12.63
2023-02-16T19:00:53.832Z,-12.59
2023-02-16T19:03:21.500Z,-12.73
2023-02-16T19:05:49.099Z,-12.58
2023-02-16T19:08:16.814Z,-12.43
2023-02-16T19:10:44.400Z,-12.78
2023-02-16T19:13:12.000Z,-12.87
2023-02-16T19:15:39.588Z,-12.72
2023-02-16T19:18:07.129Z,-12.62
2023-02-16T19:20:35.048Z,-12.58
2023-02-16T19:23:02.630Z,-12.46
2023-02-16T19:25:30.214Z,-12.25
2023-02-16T19:27:57.917Z,-12.24
2023-02-16T19:30:25.417Z,-12.18
2023-02-16T19:32:53.075Z,-12.06
2023-02-16T19:35:20.677Z,-12.08
2023-02-16T19:37:48.376Z,-12.03
2023-02-16T19:40:16.859Z,-11.98
2023-02-16T19:42:44.453Z,-11.86
2023-02-16T19:45:12.111Z,-11.79
2023-02-16T19:47:39.797Z,-11.75
2023-02-16T19:50:07.646Z,-11.66
2023-02-16T19:52:35.218Z,-11.71
2023-02-16T19:55:02.705Z,-11.84
2023-02-16T19:57:31.135Z,-11.85
2023-02-16T19:59:58.767Z,-11.73
2023-02-16T20:02:26.326Z,-11.71
2023-02-16T20:04:54.450Z,-11.66
2023-02-16T20:07:21.926Z,-11.66
2023-02-16T20:09:49.478Z,-11.67
2023-02-16T20:12:16.962Z,-11.66
2023-02-16T20:14:44.612Z,-11.70
2023-02-16T20:17:12.113Z,-11.64
2023-02-16T20:19:39.703Z,-11.73
2023-02-16T20:22:07.238Z,-11.70
2023-02-16T20:24:35.133Z,-11.62
2023-02-16T20:27:04.778Z,-11.74
2023-02-16T20:29:32.882Z,-11.81
2023-02-16T20:32:01.057Z,-11.69
2023-02-16T20:34:28.781Z,-11.92
2023-02-16T20:36:56.312Z,-12.03
2023-02-16T20:39:24.388Z,-11.99
2023-02-16T20:41:51.946Z,-11.98
2023-02-16T20:44:21.320Z,-11.89
2023-02-16T20:46:52.596Z,-12.02
2023-02-16T20:49:20.717Z,-12.09
2023-02-16T20:51:48.252Z,-11.91
2023-02-16T20:54:15.785Z,-11.97
2023-02-16T20:56:43.355Z,-12.00
2023-02-16T20:59:11.993Z,-12.06
2023-02-16T21:01:46.859Z,-12.28
2023-02-16T21:04:18.081Z,-12.19
2023-02-16T21:06:45.731Z,-12.17
2023-02-16T21:09:14.427Z,-12.20
2023-02-16T21:11:42.742Z,-12.20
2023-02-16T21:14:12.181Z,-12.15
2023-02-16T21:16:41.347Z,-12.25
2023-02-16T21:19:20.950Z,-12.23
2023-02-16T21:21:50.415Z,-12.13
2023-02-16T21:24:18.053Z,-12.17
2023-02-16T21:26:45.621Z,-12.13
2023-02-16T21:29:13.430Z,-12.08
2023-02-16T21:31:41.003Z,-11.98
2023-02-16T21:34:08.603Z,-11.96
2023-02-16T21:36:37.730Z,-11.84
2023-02-16T21:39:05.537Z,-11.72
2023-02-16T21:41:33.295Z,-11.77
2023-02-16T21:44:04.076Z,-11.59
2023-02-16T21:46:40.525Z,-11.67
2023-02-16T21:49:13.489Z,-11.71
2023-02-16T21:51:42.677Z,-11.52
2023-02-16T21:54:14.392Z,-11.54
2023-02-16T21:56:51.933Z,-11.51
2023-02-16T21:59:22.950Z,-11.69
2023-02-16T22:01:52.131Z,-11.66
2023-02-16T22:04:22.110Z,-11.65
2023-02-16T22:06:51.288Z,-11.71
2023-02-16T22:09:22.300Z,-11.68
2023-02-16T22:11:51.174Z,-11.94
2023-02-16T22:14:19.524Z,-11.73
2023-02-16T22:16:48.212Z,-12.02
2023-02-16T22:19:17.919Z,-11.97
2023-02-16T22:21:46.947Z,-11.94
2023-02-16T22:24:17.303Z,-12.29
2023-02-16T22:26:46.057Z,-12.26
2023-02-16T22:29:14.012Z,-12.16
2023-02-16T22:31:46.619Z,-12.19
2023-02-16T22:34:17.647Z,-12.18
2023-02-16T22:36:46.152Z,-12.41
2023-02-16T22:39:15.251Z,-12.35
2023-02-16T22:41:43.201Z,-12.48
2023-02-16T22:44:12.202Z,-12.48
2023-02-16T22:46:39.914Z,-12.47
2023-02-16T22:49:07.505Z,-12.38
2023-02-16T22:51:35.322Z,-12.46
2023-02-16T22:54:03.913Z,-12.43
2023-02-16T22:56:32.296Z,-12.45
2023-02-16T22:59:00.603Z,-12.50
2023-02-16T23:01:30.200Z,-12.68
2023-02-16T23:03:59.731Z,-12.55
2023-02-16T23:06:30.340Z,-12.53
2023-02-16T23:09:00.179Z,-12.65
2023-02-16T23:11:28.786Z,-12.59
2023-02-16T23:13:56.590Z,-12.48
2023-02-16T23:16:25.934Z,-12.47
2023-02-16T23:18:55.822Z,-12.37
2023-02-16T23:21:32.424Z,-12.31
2023-02-16T23:24:00.549Z,-12.33
2023-02-16T23:26:30.629Z,-12.27
2023-02-16T23:29:01.758Z,-12.22
2023-02-16T23:31:35.081Z,-12.21
2023-02-16T23:34:03.436Z,-12.41
2023-02-16T23:36:32.099Z,-12.26
2023-02-16T23:39:01.108Z,-12.17
2023-02-16T23:41:28.836Z,-12.24
2023-02-16T23:43:56.858Z,-12.26
2023-02-16T23:46:25.231Z,-12.35
2023-02-16T23:48:52.808Z,-12.27
2023-02-16T23:51:20.358Z,-12.30
2023-02-16T23:53:47.902Z,-12.23
2023-02-16T23:56:22.354Z,-12.07
2023-02-16T23:58:50.614Z,-12.11
